createdAt,value
2018-03-28T00:00:22.644Z,7.00
2018-03-28T00:01:22.616Z,7.00
2018-03-28T00:02:22.594Z,7.05
2018-03-28T00:03:22.577Z,7.07
2018-03-28T00:04:22.559Z,7.07
2018-03-28T00:05:22.516Z,7.03
2018-03-28T00:06:22.503Z,7.05
2018-03-28T00:07:22.480Z,7.05
2018-03-28T00:08:22.443Z,7.03
2018-03-28T00:09:22.419Z,7.05
2018-03-28T00:10:22.411Z,7.10
2018-03-28T00:11:22.377Z,7.06
2018-03-28T00:12:22.351Z,7.03
2018-03-28T00:13:22.338Z,7.06
2018-03-28T00:14:22.301Z,7.03
2018-03-28T00:15:22.275Z,7.03
2018-03-28T00:16:22.253Z,7.05
2018-03-28T00:17:22.230Z,6.99
2018-03-28T00:18:22.220Z,7.03
2018-03-28T00:19:22.186Z,7.06
2018-03-28T00:20:22.151Z,7.03
2018-03-28T00:21:22.135Z,7.03
2018-03-28T00:22:22.114Z,7.00
2018-03-28T00:23:22.089Z,7.06
2018-03-28T00:24:22.112Z,7.07
2018-03-28T00:25:22.035Z,7.06
2018-03-28T00:26:22.009Z,7.06
2018-03-28T00:27:22.053Z,7.03
2018-03-28T00:28:21.960Z,6.95
2018-03-28T00:29:21.936Z,7.03
2018-03-28T00:30:21.908Z,6.95
2018-03-28T00:31:21.885Z,7.05
2018-03-28T00:32:21.859Z,7.00
2018-03-28T00:33:21.837Z,6.93
2018-03-28T00:34:21.863Z,7.03
2018-03-28T00:35:21.798Z,7.00
2018-03-28T00:36:21.787Z,6.92
2018-03-28T00:37:21.746Z,6.93
2018-03-28T00:38:21.719Z,6.93
2018-03-28T00:39:21.688Z,6.95
2018-03-28T00:40:21.677Z,6.95
2018-03-28T00:41:21.652Z,6.93
2018-03-28T00:42:21.622Z,6.89
2018-03-28T00:43:21.591Z,6.88
2018-03-28T00:44:21.567Z,6.97
2018-03-28T00:45:21.540Z,6.92
2018-03-28T00:46:21.527Z,6.85
2018-03-28T00:47:21.505Z,6.92
2018-03-28T00:48:21.477Z,6.89
2018-03-28T00:49:21.448Z,6.87
2018-03-28T00:50:21.423Z,6.89
2018-03-28T00:51:21.400Z,6.85
2018-03-28T00:52:21.369Z,6.93
2018-03-28T00:53:21.346Z,6.85
2018-03-28T00:54:21.330Z,6.82
2018-03-28T00:55:21.297Z,6.82
2018-03-28T00:56:21.303Z,6.82
2018-03-28T00:57:21.260Z,6.93
2018-03-28T00:58:21.231Z,6.92
2018-03-28T00:59:21.196Z,6.95
2018-03-28T01:00:21.198Z,6.87
2018-03-28T01:01:21.149Z,6.81
2018-03-28T01:02:21.122Z,6.84
2018-03-28T01:03:21.101Z,6.89
2018-03-28T01:04:21.077Z,6.93
2018-03-28T01:05:21.050Z,6.85
2018-03-28T01:06:21.027Z,6.88
2018-03-28T01:07:21.001Z,6.92
2018-03-28T01:08:20.975Z,6.87
2018-03-28T01:09:20.954Z,6.78
2018-03-28T01:10:20.925Z,6.82
2018-03-28T01:11:20.898Z,6.93
2018-03-28T01:12:20.874Z,6.84
2018-03-28T01:13:20.855Z,6.84
2018-03-28T01:14:20.861Z,6.87
2018-03-28T01:15:20.812Z,6.81
2018-03-28T01:16:20.781Z,6.81
2018-03-28T01:17:20.762Z,6.81
2018-03-28T01:18:20.727Z,6.85
2018-03-28T01:19:20.702Z,6.81
2018-03-28T01:20:20.694Z,6.81
2018-03-28T01:21:20.659Z,6.74
2018-03-28T01:22:20.629Z,6.81
2018-03-28T01:23:20.605Z,6.81
2018-03-28T01:24:20.582Z,6.78
2018-03-28T01:25:20.555Z,6.84
2018-03-28T01:26:20.527Z,6.85
2018-03-28T01:27:20.507Z,6.70
2018-03-28T01:28:20.483Z,6.78
2018-03-28T01:29:20.454Z,6.75
2018-03-28T01:30:20.438Z,6.70
2018-03-28T01:31:20.405Z,6.72
2018-03-28T01:32:20.378Z,6.70
2018-03-28T01:33:20.352Z,6.70
2018-03-28T01:34:20.335Z,6.77
2018-03-28T01:35:20.304Z,6.72
2018-03-28T01:36:20.278Z,6.72
2018-03-28T01:37:20.264Z,6.72
2018-03-28T01:38:20.233Z,6.72
2018-03-28T01:39:20.204Z,6.77
2018-03-28T01:40:20.181Z,6.72
2018-03-28T01:41:20.159Z,6.70
2018-03-28T01:42:20.140Z,6.74
2018-03-28T01:43:20.112Z,6.75
2018-03-28T01:44:20.083Z,6.77
2018-03-28T01:45:20.057Z,6.75
2018-03-28T01:46:20.040Z,6.69
2018-03-28T01:47:20.009Z,6.72
2018-03-28T01:48:19.982Z,6.78
2018-03-28T01:49:19.958Z,6.70
2018-03-28T01:50:19.932Z,6.72
2018-03-28T01:51:19.923Z,6.75
2018-03-28T01:52:19.881Z,6.72
2018-03-28T01:53:19.863Z,6.77
2018-03-28T01:54:19.833Z,6.89
2018-03-28T01:55:19.815Z,6.75
2018-03-28T01:56:19.786Z,6.75
2018-03-28T01:57:19.756Z,6.74
2018-03-28T01:58:19.740Z,6.92
2018-03-28T01:59:19.709Z,6.75
2018-03-28T02:00:19.682Z,6.79
2018-03-28T02:01:19.661Z,6.85
2018-03-28T02:02:19.633Z,6.77
2018-03-28T02:03:19.619Z,6.87
2018-03-28T02:04:19.591Z,6.79
2018-03-28T02:05:19.560Z,6.74
2018-03-28T02:06:19.541Z,6.75
2018-03-28T02:07:19.510Z,6.75
2018-03-28T02:08:19.495Z,6.82
2018-03-28T02:09:19.474Z,6.85
2018-03-28T02:10:19.438Z,6.78
2018-03-28T02:11:19.419Z,6.72
2018-03-28T02:12:19.388Z,6.89
2018-03-28T02:13:19.364Z,6.78
2018-03-28T02:14:19.349Z,6.87
2018-03-28T02:15:19.313Z,6.81
2018-03-28T02:16:19.299Z,6.81
2018-03-28T02:17:19.266Z,6.81
2018-03-28T02:18:19.240Z,6.75
2018-03-28T02:19:19.215Z,6.82
2018-03-28T02:20:19.189Z,6.81
2018-03-28T02:21:19.168Z,6.82
2018-03-28T02:22:19.189Z,6.85
2018-03-28T02:23:19.121Z,6.81
2018-03-28T02:24:19.096Z,6.88
2018-03-28T02:25:19.073Z,6.84
2018-03-28T02:26:19.044Z,6.85
2018-03-28T02:27:19.021Z,6.85
2018-03-28T02:28:19.000Z,6.84
2018-03-28T02:29:18.970Z,6.93
2018-03-28T02:30:18.955Z,6.88
2018-03-28T02:31:18.923Z,6.89
2018-03-28T02:32:18.901Z,6.89
2018-03-28T02:33:18.873Z,6.93
2018-03-28T02:34:18.853Z,6.89
2018-03-28T02:35:18.827Z,6.89
2018-03-28T02:58:34.844Z,6.85
2018-03-28T02:59:00.779Z,6.93
2018-03-28T03:00:00.764Z,6.95
2018-03-28T03:01:00.742Z,6.92
2018-03-28T03:02:00.759Z,6.93
2018-03-28T03:03:00.685Z,6.93
2018-03-28T03:04:00.669Z,6.95
2018-03-28T03:05:00.635Z,6.97
2018-03-28T03:06:00.621Z,6.97
2018-03-28T03:07:00.589Z,6.93
2018-03-28T03:08:00.566Z,6.96
2018-03-28T03:09:00.538Z,7.00
2018-03-28T03:10:00.519Z,6.93
2018-03-28T03:11:00.497Z,6.93
2018-03-28T03:12:00.469Z,6.92
2018-03-28T03:13:00.444Z,6.95
2018-03-28T03:14:00.418Z,7.00
2018-03-28T03:15:00.410Z,6.99
2018-03-28T03:16:00.378Z,6.93
2018-03-28T03:17:00.346Z,7.03
2018-03-28T03:18:00.326Z,7.00
2018-03-28T03:19:00.306Z,6.95
2018-03-28T03:20:00.310Z,6.92
2018-03-28T03:21:00.259Z,7.02
2018-03-28T03:22:00.233Z,6.97
2018-03-28T03:23:00.206Z,6.99
2018-03-28T03:24:00.180Z,7.00
2018-03-28T03:25:00.166Z,6.96
2018-03-28T03:26:00.132Z,7.05
2018-03-28T03:27:00.109Z,6.97
2018-03-28T03:28:00.095Z,6.99
2018-03-28T03:29:00.059Z,6.96
2018-03-28T03:30:00.042Z,7.02
2018-03-28T03:31:00.018Z,7.00
2018-03-28T03:31:59.992Z,6.93
2018-03-28T03:32:59.971Z,6.95
2018-03-28T03:33:59.939Z,6.95
2018-03-28T03:34:59.912Z,7.00
2018-03-28T03:35:59.888Z,7.05
2018-03-28T03:36:59.914Z,7.00
2018-03-28T03:37:59.843Z,6.95
2018-03-28T03:38:59.815Z,7.00
2018-03-28T03:39:59.791Z,7.03
2018-03-28T03:40:59.768Z,6.95
2018-03-28T03:41:59.743Z,7.02
2018-03-28T03:42:59.748Z,6.89
2018-03-28T03:43:59.700Z,6.93
2018-03-28T03:44:59.675Z,6.95
2018-03-28T03:45:59.645Z,6.92
2018-03-28T03:46:59.628Z,6.95
2018-03-28T03:47:59.605Z,6.95
2018-03-28T03:48:59.580Z,6.92
2018-03-28T03:49:59.550Z,6.87
2018-03-28T03:50:59.524Z,6.93
2018-03-28T03:51:59.497Z,6.95
2018-03-28T03:52:59.478Z,6.95
2018-03-28T03:53:59.453Z,6.92
2018-03-28T03:54:59.424Z,6.88
2018-03-28T03:55:59.401Z,6.96
2018-03-28T03:56:59.379Z,6.95
2018-03-28T03:57:59.355Z,6.99
2018-03-28T03:58:59.325Z,6.95
2018-03-28T03:59:59.326Z,7.03
2018-03-28T04:00:59.281Z,6.95
2018-03-28T04:01:59.256Z,6.96
2018-03-28T04:02:59.228Z,6.96
2018-03-28T04:03:59.206Z,6.92
2018-03-28T04:04:59.180Z,6.92
2018-03-28T04:05:59.153Z,6.92
2018-03-28T04:06:59.138Z,6.93
2018-03-28T04:07:59.108Z,6.89
2018-03-28T04:08:59.079Z,6.96
2018-03-28T04:09:59.057Z,6.96
2018-03-28T04:10:59.075Z,6.92
2018-03-28T04:11:59.041Z,6.92
2018-03-28T04:12:58.991Z,7.03
2018-03-28T04:13:58.980Z,6.89
2018-03-28T04:14:58.934Z,6.92
2018-03-28T04:15:58.917Z,6.99
2018-03-28T04:16:58.900Z,7.02
2018-03-28T04:17:58.864Z,7.00
2018-03-28T04:18:58.842Z,7.07
2018-03-28T04:19:58.817Z,7.10
2018-03-28T04:20:58.798Z,6.93
2018-03-28T04:21:58.769Z,6.93
2018-03-28T04:22:58.742Z,7.03
2018-03-28T04:23:58.720Z,7.05
2018-03-28T04:24:58.692Z,6.95
2018-03-28T04:25:58.668Z,6.99
2018-03-28T04:26:58.648Z,7.00
2018-03-28T04:27:58.634Z,6.92
2018-03-28T04:28:58.597Z,7.05
2018-03-28T04:29:58.623Z,7.02
2018-03-28T04:30:58.554Z,6.92
2018-03-28T04:31:58.521Z,6.95
2018-03-28T04:32:58.497Z,7.00
2018-03-28T04:33:58.475Z,7.03
2018-03-28T04:34:58.449Z,7.05
2018-03-28T04:35:58.426Z,7.06
2018-03-28T04:36:58.404Z,7.06
2018-03-28T04:37:58.376Z,7.03
2018-03-28T04:38:58.353Z,6.92
2018-03-28T04:39:58.337Z,6.97
2018-03-28T04:40:58.305Z,6.97
2018-03-28T04:41:58.310Z,6.93
2018-03-28T04:42:58.258Z,7.02
2018-03-28T04:43:58.235Z,6.92
2018-03-28T04:44:58.207Z,6.95
2018-03-28T04:45:58.183Z,6.93
2018-03-28T04:46:58.166Z,6.95
2018-03-28T04:47:58.135Z,6.88
2018-03-28T04:48:58.117Z,6.95
2018-03-28T04:49:58.097Z,6.92
2018-03-28T04:50:58.062Z,6.93
2018-03-28T04:51:58.039Z,6.89
2018-03-28T04:52:58.016Z,6.93
2018-03-28T04:53:57.994Z,6.93
2018-03-28T04:54:57.966Z,7.03
2018-03-28T04:55:57.940Z,6.99
2018-03-28T04:56:57.925Z,7.02
2018-03-28T04:57:57.892Z,6.99
2018-03-28T04:58:57.864Z,6.99
2018-03-28T04:59:57.843Z,6.93
2018-03-28T05:00:57.820Z,6.99
2018-03-28T05:01:57.799Z,6.93
2018-03-28T05:02:57.772Z,6.93
2018-03-28T05:03:57.778Z,7.03
2018-03-28T05:04:57.719Z,7.06
2018-03-28T05:05:57.696Z,6.99
2018-03-28T05:06:57.685Z,6.96
2018-03-28T05:07:57.651Z,7.03
2018-03-28T05:08:57.644Z,6.93
2018-03-28T05:09:57.602Z,6.97
2018-03-28T05:10:57.577Z,7.05
2018-03-28T05:11:57.558Z,6.95
2018-03-28T05:12:57.534Z,7.00
2018-03-28T05:13:57.502Z,6.99
2018-03-28T05:14:57.473Z,7.10
2018-03-28T05:15:57.455Z,7.10
2018-03-28T05:16:57.430Z,7.02
2018-03-28T05:17:57.445Z,7.10
2018-03-28T05:18:57.418Z,7.05
2018-03-28T05:19:57.357Z,7.06
2018-03-28T05:20:57.330Z,7.10
2018-03-28T05:21:57.323Z,7.07
2018-03-28T05:22:57.293Z,6.99
2018-03-28T05:23:57.265Z,7.14
2018-03-28T05:24:57.238Z,7.10
2018-03-28T05:25:57.223Z,7.14
2018-03-28T05:26:57.203Z,7.10
2018-03-28T05:27:57.190Z,7.06
2018-03-28T05:28:57.133Z,7.05
2018-03-28T05:29:57.116Z,7.10
2018-03-28T05:30:57.087Z,7.00
2018-03-28T05:31:57.065Z,7.06
2018-03-28T05:32:57.136Z,7.03
2018-03-28T05:33:57.021Z,7.15
2018-03-28T05:34:56.995Z,7.07
2018-03-28T05:35:56.968Z,7.17
2018-03-28T05:36:56.947Z,7.05
2018-03-28T05:37:56.927Z,7.14
2018-03-28T05:38:56.890Z,7.13
2018-03-28T05:39:56.876Z,7.11
2018-03-28T05:40:56.861Z,7.17
2018-03-28T05:41:56.818Z,7.21
2018-03-28T05:42:56.797Z,7.06
2018-03-28T05:43:56.816Z,7.14
2018-03-28T05:44:56.746Z,7.07
2018-03-28T05:45:56.719Z,7.17
2018-03-28T05:46:56.698Z,7.15
2018-03-28T05:47:56.678Z,7.18
2018-03-28T05:48:56.648Z,7.18
2018-03-28T05:49:56.625Z,7.28
2018-03-28T05:50:56.608Z,7.17
2018-03-28T05:51:56.579Z,7.24
2018-03-28T05:52:56.555Z,7.25
2018-03-28T05:53:56.527Z,7.23
2018-03-28T05:54:56.506Z,7.28
2018-03-28T05:55:56.485Z,7.25
2018-03-28T05:56:56.452Z,7.23
2018-03-28T05:57:56.459Z,7.29
2018-03-28T05:58:56.404Z,7.28
2018-03-28T05:59:56.393Z,7.25
2018-03-28T06:00:56.367Z,7.24
2018-03-28T06:01:56.335Z,7.24
2018-03-28T06:02:56.311Z,7.28
2018-03-28T06:03:56.288Z,7.25
2018-03-28T06:04:56.259Z,7.25
2018-03-28T06:05:56.229Z,7.28
2018-03-28T06:06:56.210Z,7.28
2018-03-28T06:07:56.185Z,7.28
2018-03-28T06:08:56.157Z,7.31
2018-03-28T06:09:56.141Z,7.25
2018-03-28T06:10:56.115Z,7.25
2018-03-28T06:11:56.096Z,7.31
2018-03-28T06:12:56.070Z,7.31
2018-03-28T06:13:56.042Z,7.28
2018-03-28T06:14:56.015Z,7.31
2018-03-28T06:15:55.995Z,7.25
2018-03-28T06:16:55.966Z,7.28
2018-03-28T06:17:55.941Z,7.28
2018-03-28T06:18:55.920Z,7.25
2018-03-28T06:19:55.897Z,7.29
2018-03-28T06:20:55.872Z,7.29
2018-03-28T06:21:55.845Z,7.25
2018-03-28T06:22:55.822Z,7.33
2018-03-28T06:23:55.823Z,7.28
2018-03-28T06:24:55.774Z,7.28
2018-03-28T06:25:55.749Z,7.24
2018-03-28T06:26:55.720Z,7.35
2018-03-28T06:27:55.696Z,7.38
2018-03-28T06:28:55.677Z,7.36
2018-03-28T06:29:55.657Z,7.38
2018-03-28T06:30:55.624Z,7.36
2018-03-28T06:31:55.599Z,7.43
2018-03-28T06:32:55.575Z,7.38
2018-03-28T06:33:55.556Z,7.38
2018-03-28T06:34:55.531Z,7.39
2018-03-28T06:35:55.529Z,7.43
2018-03-28T06:36:55.476Z,7.40
2018-03-28T06:37:55.450Z,7.42
2018-03-28T06:38:55.430Z,7.42
2018-03-28T06:39:55.412Z,7.43
2018-03-28T06:40:55.393Z,7.50
2018-03-28T06:41:55.358Z,7.48
2018-03-28T06:42:55.332Z,7.47
2018-03-28T06:43:55.308Z,7.47
2018-03-28T06:44:55.284Z,7.51
2018-03-28T06:45:55.258Z,7.50
2018-03-28T06:46:55.233Z,7.43
2018-03-28T06:47:55.213Z,7.54
2018-03-28T06:48:55.189Z,7.54
2018-03-28T06:49:55.169Z,7.60
2018-03-28T06:50:55.138Z,7.51
2018-03-28T06:51:55.115Z,7.50
2018-03-28T06:52:55.090Z,7.48
2018-03-28T06:53:55.060Z,7.50
2018-03-28T06:54:55.037Z,7.56
2018-03-28T06:55:55.020Z,7.57
2018-03-28T06:56:54.994Z,7.54
2018-03-28T06:57:54.969Z,7.61
2018-03-28T06:58:54.944Z,7.60
2018-03-28T06:59:54.925Z,7.58
2018-03-28T07:00:54.897Z,7.48
2018-03-28T07:01:54.872Z,7.50
2018-03-28T07:02:54.846Z,7.54
2018-03-28T07:03:54.823Z,7.66
2018-03-28T07:04:54.807Z,7.57
2018-03-28T07:05:54.769Z,7.58
2018-03-28T07:06:54.758Z,7.57
2018-03-28T07:07:54.750Z,7.58
2018-03-28T07:08:54.709Z,7.69
2018-03-28T07:09:54.683Z,7.69
2018-03-28T07:10:54.674Z,7.75
2018-03-28T07:11:54.628Z,7.77
2018-03-28T07:12:54.604Z,7.80
2018-03-28T07:13:54.581Z,7.85
2018-03-28T07:14:54.555Z,7.82
2018-03-28T07:15:54.530Z,7.83
2018-03-28T07:16:54.513Z,7.82
2018-03-28T07:17:54.481Z,7.82
2018-03-28T07:18:54.460Z,7.91
2018-03-28T07:19:54.449Z,7.94
2018-03-28T07:20:54.418Z,7.98
2018-03-28T07:21:54.390Z,7.95
2018-03-28T07:22:54.364Z,7.95
2018-03-28T07:23:54.339Z,8.03
2018-03-28T07:24:54.327Z,8.06
2018-03-28T07:25:54.290Z,8.03
2018-03-28T07:26:54.269Z,8.05
2018-03-28T07:27:54.242Z,8.08
2018-03-28T07:28:54.217Z,8.06
2018-03-28T07:29:54.197Z,8.01
2018-03-28T07:30:54.174Z,8.03
2018-03-28T07:31:54.147Z,8.05
2018-03-28T07:32:54.121Z,8.01
2018-03-28T07:33:54.101Z,7.98
2018-03-28T07:34:54.076Z,8.06
2018-03-28T07:35:54.054Z,8.03
2018-03-28T07:36:54.034Z,8.06
2018-03-28T07:37:54.006Z,8.08
2018-03-28T07:38:53.993Z,8.06
2018-03-28T07:39:53.961Z,8.05
2018-03-28T07:40:53.929Z,8.03
2018-03-28T07:41:53.910Z,8.03
2018-03-28T07:42:53.886Z,8.06
2018-03-28T07:43:53.866Z,8.00
2018-03-28T07:44:53.841Z,8.05
2018-03-28T07:45:53.814Z,8.05
2018-03-28T07:46:53.796Z,8.06
2018-03-28T07:47:53.774Z,8.12
2018-03-28T07:48:53.752Z,8.05
2018-03-28T07:49:53.722Z,8.03
2018-03-28T07:50:53.700Z,8.13
2018-03-28T07:51:53.669Z,8.13
2018-03-28T07:52:53.651Z,8.15
2018-03-28T07:53:53.628Z,8.18
2018-03-28T07:54:53.602Z,8.08
2018-03-28T07:55:53.577Z,8.15
2018-03-28T07:56:53.558Z,8.13
2018-03-28T07:57:53.533Z,8.09
2018-03-28T07:58:53.510Z,8.16
2018-03-28T07:59:53.485Z,8.24
2018-03-28T08:00:53.456Z,8.19
2018-03-28T08:01:53.436Z,8.26
2018-03-28T08:02:53.412Z,8.24
2018-03-28T08:03:53.466Z,8.23
2018-03-28T08:04:53.370Z,8.13
2018-03-28T08:05:53.338Z,8.23
2018-03-28T08:06:53.324Z,8.20
2018-03-28T08:07:53.298Z,8.20
2018-03-28T08:08:53.270Z,8.24
2018-03-28T08:09:53.254Z,8.41
2018-03-28T08:10:53.227Z,8.51
2018-03-28T08:11:53.203Z,8.41
2018-03-28T08:12:53.177Z,8.46
2018-03-28T08:13:53.159Z,8.49
2018-03-28T08:14:53.137Z,8.60
2018-03-28T08:15:53.108Z,8.66
2018-03-28T08:16:53.087Z,8.58
2018-03-28T08:17:53.063Z,8.67
2018-03-28T08:18:53.033Z,8.71
2018-03-28T08:19:53.019Z,8.81
2018-03-28T08:20:52.998Z,8.81
2018-03-28T08:21:52.966Z,8.84
2018-03-28T08:22:52.940Z,8.95
2018-03-28T08:23:52.917Z,9.13
2018-03-28T08:24:52.903Z,9.18
2018-03-28T08:25:52.871Z,9.36
2018-03-28T08:26:52.855Z,9.22
2018-03-28T08:27:52.833Z,9.26
2018-03-28T08:28:52.808Z,9.41
2018-03-28T08:29:52.782Z,9.40
2018-03-28T08:30:52.759Z,9.55
2018-03-28T08:31:52.736Z,9.56
2018-03-28T08:32:52.734Z,9.58
2018-03-28T08:33:52.698Z,9.51
2018-03-28T08:34:52.675Z,9.66
2018-03-28T08:35:52.653Z,9.61
2018-03-28T08:36:52.626Z,9.55
2018-03-28T08:37:52.610Z,9.64
2018-03-28T08:38:52.587Z,9.73
2018-03-28T08:39:52.573Z,9.80
2018-03-28T08:40:52.540Z,9.76
2018-03-28T08:41:52.526Z,9.82
2018-03-28T08:42:52.495Z,9.89
2018-03-28T08:43:52.476Z,9.99
2018-03-28T08:44:52.457Z,10.04
2018-03-28T08:45:52.441Z,10.07
2018-03-28T08:46:52.411Z,10.05
2018-03-28T08:47:52.387Z,10.12
2018-03-28T08:48:52.369Z,10.22
2018-03-28T08:49:52.348Z,10.26
2018-03-28T08:50:52.322Z,10.19
2018-03-28T08:51:52.306Z,10.30
2018-03-28T08:52:52.281Z,10.23
2018-03-28T08:53:52.266Z,10.57
2018-03-28T08:54:52.242Z,10.69
2018-03-28T08:55:52.218Z,10.59
2018-03-28T08:56:52.206Z,10.48
2018-03-28T08:57:52.181Z,10.54
2018-03-28T08:58:52.161Z,10.41
2018-03-28T08:59:52.138Z,10.28
2018-03-28T09:00:52.130Z,10.25
2018-03-28T09:01:52.126Z,10.25
2018-03-28T09:02:52.079Z,10.25
2018-03-28T09:03:52.061Z,10.44
2018-03-28T09:04:52.042Z,10.56
2018-03-28T09:05:52.020Z,10.71
2018-03-28T09:06:52.000Z,10.78
2018-03-28T09:07:51.985Z,10.76
2018-03-28T09:08:51.955Z,10.57
2018-03-28T09:09:51.933Z,10.74
2018-03-28T09:10:51.912Z,10.75
2018-03-28T09:11:51.898Z,10.75
2018-03-28T09:12:51.884Z,10.81
2018-03-28T09:13:51.849Z,10.71
2018-03-28T09:14:51.842Z,10.60
2018-03-28T09:15:51.817Z,10.49
2018-03-28T09:16:51.795Z,10.48
2018-03-28T09:17:51.772Z,10.60
2018-03-28T09:18:51.763Z,10.38
2018-03-28T09:19:51.737Z,10.53
2018-03-28T09:20:51.716Z,10.57
2018-03-28T09:21:51.694Z,10.25
2018-03-28T09:22:51.681Z,10.23
2018-03-28T09:23:51.657Z,10.12
2018-03-28T09:24:51.639Z,10.09
2018-03-28T09:25:51.612Z,10.12
2018-03-28T09:26:51.608Z,10.10
2018-03-28T09:27:51.573Z,10.22
2018-03-28T09:28:51.548Z,10.26
2018-03-28T09:29:51.535Z,10.37
2018-03-28T09:30:51.514Z,10.59
2018-03-28T09:31:51.509Z,10.59
2018-03-28T09:32:51.527Z,10.54
2018-03-28T09:33:51.450Z,10.51
2018-03-28T09:34:51.441Z,10.42
2018-03-28T09:35:51.408Z,10.33
2018-03-28T09:36:51.385Z,10.37
2018-03-28T09:37:51.368Z,10.30
2018-03-28T09:38:51.352Z,10.26
2018-03-28T09:39:51.326Z,10.04
2018-03-28T09:40:51.308Z,10.16
2018-03-28T09:41:51.294Z,10.09
2018-03-28T09:42:51.267Z,9.89
2018-03-28T09:43:51.246Z,9.95
2018-03-28T09:44:51.233Z,10.12
2018-03-28T09:45:51.209Z,10.10
2018-03-28T09:46:51.180Z,10.25
2018-03-28T09:47:51.158Z,10.37
2018-03-28T09:48:51.139Z,10.51
2018-03-28T09:49:51.121Z,10.25
2018-03-28T09:50:51.100Z,10.22
2018-03-28T09:51:51.078Z,10.22
2018-03-28T09:52:51.085Z,10.26
2018-03-28T09:53:51.036Z,10.38
2018-03-28T09:54:51.017Z,10.38
2018-03-28T09:55:50.990Z,10.35
2018-03-28T09:56:50.983Z,10.35
2018-03-28T09:57:50.957Z,10.31
2018-03-28T09:58:50.932Z,10.30
2018-03-28T09:59:50.923Z,10.40
2018-03-28T10:00:50.890Z,10.54
2018-03-28T10:01:50.871Z,10.59
2018-03-28T10:02:50.847Z,10.59
2018-03-28T10:03:50.831Z,10.64
2018-03-28T10:04:50.813Z,10.76
2018-03-28T10:05:50.787Z,10.75
2018-03-28T10:06:50.766Z,10.92
2018-03-28T10:07:50.754Z,11.10
2018-03-28T10:08:50.733Z,10.96
2018-03-28T10:09:50.710Z,11.11
2018-03-28T10:10:50.685Z,11.12
2018-03-28T10:11:50.684Z,11.11
2018-03-28T10:12:50.646Z,11.04
2018-03-28T10:13:50.625Z,11.08
2018-03-28T10:14:50.606Z,11.18
2018-03-28T10:15:50.583Z,11.07
2018-03-28T10:16:50.568Z,11.08
2018-03-28T10:17:50.542Z,10.89
2018-03-28T10:18:50.525Z,10.84
2018-03-28T10:19:50.510Z,10.75
2018-03-28T10:20:50.490Z,10.81
2018-03-28T10:21:50.474Z,10.75
2018-03-28T10:22:50.445Z,10.86
2018-03-28T10:23:50.428Z,10.74
2018-03-28T10:24:50.409Z,10.75
2018-03-28T10:25:50.386Z,10.76
2018-03-28T10:26:50.368Z,10.76
2018-03-28T10:27:50.350Z,10.92
2018-03-28T10:28:50.328Z,10.94
2018-03-28T10:29:50.358Z,10.94
2018-03-28T10:30:50.296Z,11.02
2018-03-28T10:31:50.281Z,11.14
2018-03-28T10:32:50.247Z,11.11
2018-03-28T10:33:50.226Z,11.05
2018-03-28T10:34:50.209Z,10.93
2018-03-28T10:35:50.188Z,10.90
2018-03-28T10:36:50.174Z,10.76
2018-03-28T10:37:50.141Z,10.82
2018-03-28T10:38:50.194Z,10.84
2018-03-28T10:39:50.108Z,10.75
2018-03-28T10:40:50.084Z,10.81
2018-03-28T10:41:50.063Z,10.90
2018-03-28T10:42:50.052Z,10.99
2018-03-28T10:43:50.027Z,10.89
2018-03-28T10:44:50.002Z,10.90
2018-03-28T10:45:49.985Z,10.89
2018-03-28T10:46:49.965Z,11.00
2018-03-28T10:47:49.943Z,10.94
2018-03-28T10:48:49.929Z,11.05
2018-03-28T10:49:49.909Z,11.14
2018-03-28T10:50:49.900Z,10.99
2018-03-28T10:51:49.860Z,10.99
2018-03-28T10:52:49.845Z,11.10
2018-03-28T10:53:49.823Z,10.87
2018-03-28T10:54:49.803Z,10.78
2018-03-28T10:55:49.782Z,10.64
2018-03-28T10:56:49.757Z,10.49
2018-03-28T10:57:49.745Z,10.40
2018-03-28T10:58:49.722Z,10.37
2018-03-28T10:59:49.698Z,10.59
2018-03-28T11:00:49.684Z,10.57
2018-03-28T11:01:49.657Z,10.59
2018-03-28T11:02:49.643Z,10.74
2018-03-28T11:03:49.620Z,10.78
2018-03-28T11:04:49.603Z,10.68
2018-03-28T11:05:49.579Z,10.76
2018-03-28T11:06:49.554Z,10.67
2018-03-28T11:07:49.536Z,10.54
2018-03-28T11:08:49.515Z,10.49
2018-03-28T11:09:49.499Z,10.51
2018-03-28T11:10:49.478Z,10.49
2018-03-28T11:11:49.454Z,10.72
2018-03-28T11:12:49.434Z,10.81
2018-03-28T11:13:49.419Z,10.76
2018-03-28T11:14:49.392Z,10.87
2018-03-28T11:15:49.375Z,10.82
2018-03-28T11:16:49.353Z,10.94
2018-03-28T11:17:49.332Z,10.92
2018-03-28T11:18:49.311Z,10.84
2018-03-28T11:19:49.295Z,10.92
2018-03-28T11:20:49.277Z,10.82
2018-03-28T11:21:49.254Z,10.75
2018-03-28T11:22:49.226Z,10.75
2018-03-28T11:23:49.209Z,10.78
2018-03-28T11:24:49.188Z,10.78
2018-03-28T11:25:49.171Z,10.69
2018-03-28T11:26:49.146Z,10.76
2018-03-28T11:27:49.125Z,10.71
2018-03-28T11:28:49.101Z,10.68
2018-03-28T11:29:49.082Z,10.72
2018-03-28T11:30:49.064Z,10.76
2018-03-28T11:31:49.056Z,10.78
2018-03-28T11:32:49.022Z,10.79
2018-03-28T11:33:49.000Z,10.76
2018-03-28T11:34:48.982Z,10.79
2018-03-28T11:35:48.965Z,10.82
2018-03-28T11:36:48.943Z,10.79
2018-03-28T11:37:48.913Z,10.87
2018-03-28T11:38:48.923Z,10.93
2018-03-28T11:39:48.877Z,10.94
2018-03-28T11:40:48.852Z,10.74
2018-03-28T11:41:48.834Z,10.74
2018-03-28T11:42:48.820Z,10.72
2018-03-28T11:43:48.796Z,10.59
2018-03-28T11:44:48.772Z,10.57
2018-03-28T11:45:48.756Z,10.56
2018-03-28T11:46:48.738Z,10.48
2018-03-28T11:47:48.706Z,10.53
2018-03-28T11:48:48.689Z,10.57
2018-03-28T11:49:48.667Z,10.59
2018-03-28T11:50:48.678Z,10.68
2018-03-28T11:51:48.627Z,10.64
2018-03-28T11:52:48.617Z,10.60
2018-03-28T11:53:48.584Z,10.56
2018-03-28T11:54:48.562Z,10.46
2018-03-28T11:55:48.542Z,10.42
2018-03-28T11:56:48.535Z,10.53
2018-03-28T11:57:48.497Z,10.49
2018-03-28T11:58:48.478Z,10.56
2018-03-28T11:59:48.456Z,10.61
2018-03-28T12:00:48.437Z,10.63
2018-03-28T12:01:48.410Z,10.74
2018-03-28T12:02:48.388Z,10.75
2018-03-28T12:03:48.368Z,10.71
2018-03-28T12:04:48.348Z,10.76
2018-03-28T12:05:48.330Z,10.74
2018-03-28T12:06:48.304Z,10.78
2018-03-28T12:07:48.285Z,10.79
2018-03-28T12:08:48.272Z,10.78
2018-03-28T12:09:48.245Z,10.74
2018-03-28T12:10:48.221Z,10.72
2018-03-28T12:11:48.202Z,10.76
2018-03-28T12:12:48.192Z,10.76
2018-03-28T12:13:48.158Z,10.81
2018-03-28T12:14:48.133Z,10.79
2018-03-28T12:15:48.114Z,10.75
2018-03-28T12:16:48.095Z,10.74
2018-03-28T12:17:48.070Z,10.74
2018-03-28T12:18:48.055Z,10.74
2018-03-28T12:19:48.033Z,10.64
2018-03-28T12:20:48.010Z,10.67
2018-03-28T12:21:47.990Z,10.57
2018-03-28T12:22:47.970Z,10.59
2018-03-28T12:23:47.953Z,10.72
2018-03-28T12:24:47.920Z,10.68
2018-03-28T12:25:47.901Z,10.57
2018-03-28T12:26:47.881Z,10.56
2018-03-28T12:27:47.873Z,10.54
2018-03-28T12:28:47.838Z,10.49
2018-03-28T12:29:47.819Z,10.57
2018-03-28T12:30:47.801Z,10.64
2018-03-28T12:31:47.773Z,10.68
2018-03-28T12:32:47.756Z,10.72
2018-03-28T12:33:47.734Z,10.60
2018-03-28T12:34:47.715Z,10.63
2018-03-28T12:35:47.690Z,10.60
2018-03-28T12:36:47.717Z,10.44
2018-03-28T12:37:47.641Z,10.41
2018-03-28T12:38:47.625Z,10.38
2018-03-28T12:39:47.604Z,10.35
2018-03-28T12:40:47.582Z,10.26
2018-03-28T12:41:47.559Z,10.30
2018-03-28T12:42:47.538Z,10.22
2018-03-28T12:43:47.523Z,10.12
2018-03-28T12:44:47.496Z,10.15
2018-03-28T12:45:47.473Z,10.12
2018-03-28T12:46:47.448Z,10.07
2018-03-28T12:47:47.432Z,10.12
2018-03-28T12:48:47.441Z,10.09
2018-03-28T12:49:47.475Z,10.02
2018-03-28T12:50:47.364Z,9.95
2018-03-28T12:51:47.379Z,9.87
2018-03-28T12:52:47.319Z,9.82
2018-03-28T12:53:47.304Z,9.86
2018-03-28T12:54:47.306Z,9.89
2018-03-28T12:55:47.256Z,9.89
2018-03-28T12:56:47.246Z,9.80
2018-03-28T12:57:47.219Z,9.68
2018-03-28T12:58:47.188Z,9.62
2018-03-28T12:59:47.215Z,9.65
2018-03-28T13:00:47.140Z,9.48
2018-03-28T13:01:47.130Z,9.61
2018-03-28T13:02:47.098Z,9.46
2018-03-28T13:03:47.081Z,9.34
2018-03-28T13:04:47.084Z,9.25
2018-03-28T13:05:47.032Z,9.23
2018-03-28T13:06:47.007Z,9.21
2018-03-28T13:07:46.983Z,9.28
2018-03-28T13:08:46.972Z,9.22
2018-03-28T13:09:46.940Z,9.21
2018-03-28T13:10:46.916Z,9.26
2018-03-28T13:11:46.895Z,9.13
2018-03-28T13:12:46.878Z,9.25
2018-03-28T13:13:46.851Z,9.36
2018-03-28T13:14:46.839Z,9.22
2018-03-28T13:15:46.817Z,9.31
2018-03-28T13:16:46.785Z,9.41
2018-03-28T13:17:46.761Z,9.32
2018-03-28T13:18:46.735Z,9.34
2018-03-28T13:19:46.720Z,9.44
2018-03-28T13:20:46.693Z,9.44
2018-03-28T13:21:46.690Z,9.44
2018-03-28T13:22:46.674Z,9.39
2018-03-28T13:23:46.631Z,9.36
2018-03-28T13:24:46.610Z,9.37
2018-03-28T13:25:46.581Z,9.23
2018-03-28T13:26:46.558Z,9.23
2018-03-28T13:27:46.538Z,9.16
2018-03-28T13:28:46.532Z,9.25
2018-03-28T13:29:46.528Z,9.10
2018-03-28T13:30:46.464Z,9.10
2018-03-28T13:31:46.449Z,9.10